Time;durP1;ratioP1;P1;durP2;ratioP2;P2;SDS_P1;SDS_P2;PMS_P1;PMS_P2;Temp;Humidity;BMP_temperature;BMP_pressure;BME280_temperature;BME280_humidity;BME280_pressure;Samples;Min_cycle;Max_cycle;Signal;HPM_P1;HPM_P2
2021/12/04 00:00:21;;;;;;;1999.90;999.90;;;;;;;;;;5002576;28;20025;-83
2021/12/04 00:02:48;;;;;;;1999.90;999.90;;;;;;;;;;5003200;28;20021;-84
2021/12/04 00:05:14;;;;;;;1999.90;999.90;;;;;;;;;;5032995;28;20540;-85
2021/12/04 00:07:41;;;;;;;1999.90;999.90;;;;;;;;;;4999954;28;20112;-87
2021/12/04 00:10:07;;;;;;;1999.90;999.90;;;;;;;;;;5035193;28;20029;-87
2021/12/04 00:12:34;;;;;;;1999.90;999.90;;;;;;;;;;5019445;28;20036;-87
2021/12/04 00:15:02;;;;;;;1999.90;999.90;;;;;;;;;;5015986;28;20061;-89
2021/12/04 00:17:30;;;;;;;1999.90;999.90;;;;;;;;;;4991432;28;20037;-90
2021/12/04 00:19:58;;;;;;;1999.90;999.90;;;;;;;;;;5020052;28;20051;-89
2021/12/04 00:22:26;;;;;;;1664.18;769.65;;;;;;;;;;5003224;28;20128;-88
2021/12/04 00:24:53;;;;;;;1999.90;999.90;;;;;;;;;;5019446;28;20025;-88
2021/12/04 00:27:18;;;;;;;1999.90;999.90;;;;;;;;;;5003041;28;20029;-87
2021/12/04 00:29:44;;;;;;;1999.90;999.90;;;;;;;;;;4985261;28;20079;-87
2021/12/04 00:32:15;;;;;;;1999.90;999.90;;;;;;;;;;5010073;28;20141;-87
2021/12/04 00:34:45;;;;;;;1999.90;999.90;;;;;;;;;;5001776;28;20438;-85
2021/12/04 00:50:48;;;;;;;1999.90;999.90;;;;;;;;;;5037717;28;20115;-86
2021/12/04 00:53:14;;;;;;;1999.90;999.90;;;;;;;;;;5017695;28;20041;-86
2021/12/04 00:55:41;;;;;;;1999.90;999.90;;;;;;;;;;5031632;28;20034;-85
2021/12/04 00:58:07;;;;;;;1999.90;999.90;;;;;;;;;;4998468;28;20040;-86
2021/12/04 01:00:33;;;;;;;1999.90;999.90;;;;;;;;;;5006254;28;20127;-86
2021/12/04 01:02:59;;;;;;;1999.90;999.90;;;;;;;;;;5003854;28;20123;-86
2021/12/04 01:05:26;;;;;;;1192.57;518.75;;;;;;;;;;5001501;28;20044;-85
2021/12/04 01:07:51;;;;;;;1577.10;755.55;;;;;;;;;;4989480;28;20096;-84
2021/12/04 01:10:18;;;;;;;1999.90;999.90;;;;;;;;;;5034355;28;20037;-86
2021/12/04 01:12:43;;;;;;;1999.90;999.90;;;;;;;;;;5034807;28;20051;-85
2021/12/04 01:15:09;;;;;;;1999.90;999.90;;;;;;;;;;5030776;28;20033;-85
2021/12/04 01:17:35;;;;;;;1999.90;999.90;;;;;;;;;;4981686;28;20045;-86
2021/12/04 01:20:03;;;;;;;1999.90;999.90;;;;;;;;;;4982521;28;20091;-86
2021/12/04 01:22:29;;;;;;;1999.90;999.90;;;;;;;;;;5008933;28;20041;-85
2021/12/04 01:24:54;;;;;;;1999.90;999.90;;;;;;;;;;5017407;28;20136;-86
2021/12/04 01:27:19;;;;;;;1999.90;999.90;;;;;;;;;;5017248;28;20045;-85
2021/12/04 01:29:45;;;;;;;1999.90;999.90;;;;;;;;;;4997981;28;20025;-84
2021/12/04 01:32:11;;;;;;;1999.90;999.90;;;;;;;;;;5017258;28;20033;-86
2021/12/04 01:34:38;;;;;;;1999.90;999.90;;;;;;;;;;5034289;28;20061;-84
2021/12/04 01:37:04;;;;;;;1999.90;999.90;;;;;;;;;;5017312;28;20083;-85
2021/12/04 01:39:29;;;;;;;1999.90;999.90;;;;;;;;;;5017573;28;20034;-85
2021/12/04 01:41:55;;;;;;;1999.90;999.90;;;;;;;;;;5017571;28;20052;-84
2021/12/04 01:44:21;;;;;;;1999.90;999.90;;;;;;;;;;5033628;28;20037;-86
2021/12/04 01:46:49;;;;;;;1999.90;999.90;;;;;;;;;;5014049;28;20519;-85
2021/12/04 01:49:15;;;;;;;1999.90;999.90;;;;;;;;;;5017062;28;20039;-84
2021/12/04 01:51:42;;;;;;;1999.90;999.90;;;;;;;;;;5000832;28;20024;-85
2021/12/04 01:54:07;;;;;;;1999.90;999.90;;;;;;;;;;4997579;28;20075;-84
2021/12/04 01:56:34;;;;;;;1999.90;999.90;;;;;;;;;;4999097;28;20033;-84
2021/12/04 01:59:00;;;;;;;1999.90;999.90;;;;;;;;;;4983754;28;20766;-85
2021/12/04 02:01:26;;;;;;;1999.90;999.90;;;;;;;;;;4986912;28;20029;-84
2021/12/04 02:03:52;;;;;;;1999.90;999.90;;;;;;;;;;5001102;28;20119;-86
2021/12/04 02:06:18;;;;;;;1999.90;999.90;;;;;;;;;;5005048;28;20037;-85
2021/12/04 02:08:44;;;;;;;1999.90;999.90;;;;;;;;;;5020536;28;20507;-84
2021/12/04 02:11:10;;;;;;;1999.90;999.90;;;;;;;;;;5004519;28;20056;-84
2021/12/04 02:13:36;;;;;;;1999.90;999.90;;;;;;;;;;5004850;28;20033;-84
2021/12/04 02:16:03;;;;;;;1999.90;999.90;;;;;;;;;;5020396;28;20041;-83
2021/12/04 02:18:29;;;;;;;1999.90;999.90;;;;;;;;;;5022728;28;20038;-84
2021/12/04 02:20:54;;;;;;;1999.90;999.90;;;;;;;;;;5002287;28;20090;-83
2021/12/04 02:23:20;;;;;;;1999.90;999.90;;;;;;;;;;5033653;28;20091;-84
2021/12/04 02:25:46;;;;;;;1999.90;999.90;;;;;;;;;;5009244;28;20061;-84
2021/12/04 02:28:12;;;;;;;1999.90;999.90;;;;;;;;;;5020534;28;20032;-83
2021/12/04 02:30:39;;;;;;;1999.90;999.90;;;;;;;;;;5021099;28;20032;-84
2021/12/04 02:33:11;;;;;;;1999.90;999.90;;;;;;;;;;4987024;28;20025;-83
2021/12/04 02:35:39;;;;;;;1999.90;999.90;;;;;;;;;;5002478;28;20424;-83
2021/12/04 02:38:04;;;;;;;1999.90;999.90;;;;;;;;;;5017104;28;20037;-84
2021/12/04 02:40:30;;;;;;;1999.90;999.90;;;;;;;;;;5031933;28;20040;-84
2021/12/04 02:42:56;;;;;;;1999.90;999.90;;;;;;;;;;5019967;28;20040;-84
2021/12/04 02:45:21;;;;;;;1999.90;999.90;;;;;;;;;;5020241;28;20418;-83
2021/12/04 02:47:47;;;;;;;1999.90;999.90;;;;;;;;;;5019594;28;20041;-84
2021/12/04 02:50:12;;;;;;;1999.90;999.90;;;;;;;;;;5036724;28;20407;-84
2021/12/04 02:52:38;;;;;;;1999.90;999.90;;;;;;;;;;5036541;28;20029;-83
2021/12/04 02:55:04;;;;;;;1516.32;752.20;;;;;;;;;;5003340;28;20037;-83
2021/12/04 02:57:30;;;;;;;1999.90;999.90;;;;;;;;;;5002502;28;20021;-83
2021/12/04 02:59:56;;;;;;;1999.90;999.90;;;;;;;;;;5003774;28;20082;-83
2021/12/04 03:02:22;;;;;;;1999.90;999.90;;;;;;;;;;5003476;28;20027;-83
2021/12/04 03:04:50;;;;;;;1999.90;999.90;;;;;;;;;;5003926;28;20112;-82
2021/12/04 03:07:15;;;;;;;1999.90;999.90;;;;;;;;;;5003549;28;20490;-83
2021/12/04 03:09:41;;;;;;;1999.90;999.90;;;;;;;;;;5036367;28;20116;-83
2021/12/04 03:12:07;;;;;;;1999.90;999.90;;;;;;;;;;5019121;28;20036;-82
2021/12/04 03:14:33;;;;;;;1999.90;999.90;;;;;;;;;;5013126;28;20045;-82
2021/12/04 03:16:58;;;;;;;1999.90;999.90;;;;;;;;;;5024269;28;20046;-82
2021/12/04 03:19:24;;;;;;;1999.90;999.90;;;;;;;;;;5001949;28;20044;-83
2021/12/04 03:21:50;;;;;;;1999.90;999.90;;;;;;;;;;4999645;28;20123;-83
2021/12/04 03:24:17;;;;;;;1999.90;999.90;;;;;;;;;;4990757;28;20025;-82
2021/12/04 03:26:45;;;;;;;1553.00;758.92;;;;;;;;;;5003244;28;20496;-79
2021/12/04 03:29:14;;;;;;;1999.90;999.90;;;;;;;;;;5032226;28;20037;-79
2021/12/04 03:42:25;;;;;;;1999.90;999.90;;;;;;;;;;5043912;28;20033;-79
2021/12/04 03:44:51;;;;;;;1999.90;999.90;;;;;;;;;;5018119;28;20054;-80
2021/12/04 03:47:17;;;;;;;1999.90;999.90;;;;;;;;;;5018437;28;20037;-80
2021/12/04 03:49:43;;;;;;;1999.90;999.90;;;;;;;;;;5035867;28;20055;-79
2021/12/04 03:52:09;;;;;;;1999.90;999.90;;;;;;;;;;5019052;28;20475;-79
2021/12/04 03:54:34;;;;;;;1999.90;999.90;;;;;;;;;;5019170;28;20041;-79
2021/12/04 03:57:03;;;;;;;1999.90;999.90;;;;;;;;;;4999894;28;20041;-79
2021/12/04 03:59:33;;;;;;;1999.90;999.90;;;;;;;;;;5016171;28;20076;-79
2021/12/04 04:01:59;;;;;;;1999.90;999.90;;;;;;;;;;5005852;28;20537;-79
2021/12/04 04:04:24;;;;;;;1999.90;999.90;;;;;;;;;;4998894;28;20033;-79
2021/12/04 04:06:50;;;;;;;1999.90;999.90;;;;;;;;;;5037395;28;20044;-80
2021/12/04 04:09:15;;;;;;;1999.90;999.90;;;;;;;;;;5031507;28;20171;-80
2021/12/04 04:11:41;;;;;;;1999.90;999.90;;;;;;;;;;5018389;28;20402;-81
2021/12/04 04:14:07;;;;;;;1999.90;999.90;;;;;;;;;;5023037;28;20041;-79
2021/12/04 04:16:35;;;;;;;1999.90;999.90;;;;;;;;;;4981375;28;20029;-79
2021/12/04 04:19:01;;;;;;;1999.90;999.90;;;;;;;;;;5018274;28;20453;-79
2021/12/04 04:21:26;;;;;;;1999.90;999.90;;;;;;;;;;5018398;28;20054;-79
2021/12/04 04:23:52;;;;;;;1999.90;999.90;;;;;;;;;;5017849;28;20049;-79
2021/12/04 04:26:17;;;;;;;1999.90;999.90;;;;;;;;;;4998494;28;20033;-79
2021/12/04 04:28:43;;;;;;;1999.90;999.90;;;;;;;;;;5014207;28;20045;-79
2021/12/04 04:31:09;;;;;;;1999.90;999.90;;;;;;;;;;4999593;28;20029;-80
2021/12/04 04:33:38;;;;;;;1999.90;999.90;;;;;;;;;;5017599;28;20029;-79
2021/12/04 04:36:13;;;;;;;1999.90;999.90;;;;;;;;;;5018866;28;20037;-80
2021/12/04 04:39:04;;;;;;;1999.90;999.90;;;;;;;;;;5012278;28;20423;-80
2021/12/04 04:58:17;;;;;;;1999.90;999.90;;;;;;;;;;5036335;28;20060;-79
2021/12/04 05:01:13;;;;;;;1999.90;999.90;;;;;;;;;;5020054;28;20478;-81
2021/12/04 05:14:31;;;;;;;1999.90;999.90;;;;;;;;;;5032559;28;20033;-79
2021/12/04 05:22:26;;;;;;;1999.90;999.90;;;;;;;;;;5038524;28;20045;-80
2021/12/04 05:24:51;;;;;;;1999.90;999.90;;;;;;;;;;5033894;28;20029;-79
2021/12/04 05:27:17;;;;;;;1999.90;999.90;;;;;;;;;;5016765;28;20063;-80
2021/12/04 05:29:42;;;;;;;1999.90;999.90;;;;;;;;;;5016937;28;20036;-79
2021/12/04 05:32:08;;;;;;;1999.90;999.90;;;;;;;;;;5033594;28;20033;-80
2021/12/04 05:34:34;;;;;;;1999.90;999.90;;;;;;;;;;5030575;28;20044;-80
2021/12/04 05:36:59;;;;;;;1999.90;999.90;;;;;;;;;;5030406;28;20670;-80
2021/12/04 05:39:25;;;;;;;1999.90;999.90;;;;;;;;;;5017027;28;20029;-80
2021/12/04 05:41:51;;;;;;;1999.90;999.90;;;;;;;;;;5017125;28;20124;-79
2021/12/04 05:44:19;;;;;;;1999.90;999.90;;;;;;;;;;5017704;28;20036;-80
2021/12/04 05:46:52;;;;;;;1999.90;999.90;;;;;;;;;;5013567;28;20041;-80
2021/12/04 05:49:23;;;;;;;1999.90;999.90;;;;;;;;;;5002735;28;20037;-79
2021/12/04 05:56:45;;;;;;;1999.90;999.90;;;;;;;;;;5032704;28;20563;-79
2021/12/04 05:59:11;;;;;;;1999.90;999.90;;;;;;;;;;5045178;28;20123;-80
2021/12/04 06:01:36;;;;;;;1999.90;999.90;;;;;;;;;;4998457;28;20029;-80
2021/12/04 06:04:02;;;;;;;1999.90;999.90;;;;;;;;;;5033509;28;20086;-79
2021/12/04 06:06:27;;;;;;;1999.90;999.90;;;;;;;;;;5033829;28;20108;-79
2021/12/04 06:08:53;;;;;;;1999.90;999.90;;;;;;;;;;5033408;28;20025;-79
2021/12/04 06:11:18;;;;;;;1999.90;999.90;;;;;;;;;;5032748;28;20041;-80
2021/12/04 06:13:44;;;;;;;1999.90;999.90;;;;;;;;;;5042004;28;20047;-80
2021/12/04 06:16:10;;;;;;;1999.90;999.90;;;;;;;;;;5015571;28;20087;-80
2021/12/04 06:18:35;;;;;;;1999.90;999.90;;;;;;;;;;5033362;28;20112;-79
2021/12/04 06:23:45;;;;;;;1999.90;999.90;;;;;;;;;;5016271;28;20037;-79
2021/12/04 06:26:10;;;;;;;1999.90;999.90;;;;;;;;;;5029778;28;20395;-80
2021/12/04 06:28:36;;;;;;;1999.90;999.90;;;;;;;;;;5030359;28;20033;-79
2021/12/04 06:31:01;;;;;;;1999.90;999.90;;;;;;;;;;4997001;28;20064;-80
2021/12/04 06:33:27;;;;;;;1999.90;999.90;;;;;;;;;;5013554;28;20025;-80
2021/12/04 06:35:53;;;;;;;1999.90;999.90;;;;;;;;;;5013569;28;20037;-80
2021/12/04 06:38:18;;;;;;;1999.90;999.90;;;;;;;;;;4996847;28;20072;-80
2021/12/04 06:40:45;;;;;;;1999.90;999.90;;;;;;;;;;5015102;28;20048;-80
2021/12/04 06:43:10;;;;;;;1999.90;999.90;;;;;;;;;;5012636;28;20033;-79
2021/12/04 06:45:37;;;;;;;1999.90;999.90;;;;;;;;;;5026608;28;20048;-79
2021/12/04 06:48:07;;;;;;;1999.90;999.90;;;;;;;;;;5025549;28;20043;-81
2021/12/04 06:50:45;;;;;;;1999.90;999.90;;;;;;;;;;4988985;28;20025;-82
2021/12/04 06:53:22;;;;;;;1999.90;999.90;;;;;;;;;;5020718;28;20025;-82
2021/12/04 06:55:52;;;;;;;1999.90;999.90;;;;;;;;;;5018470;28;20182;-86
2021/12/04 06:58:18;;;;;;;1999.90;999.90;;;;;;;;;;4985776;28;20026;-83
2021/12/04 07:00:44;;;;;;;1999.90;999.90;;;;;;;;;;5000376;28;20543;-82
2021/12/04 07:03:09;;;;;;;1999.90;999.90;;;;;;;;;;4985612;28;20383;-86
2021/12/04 07:05:36;;;;;;;1999.90;999.90;;;;;;;;;;5000463;28;20116;-83
2021/12/04 07:08:01;;;;;;;1999.90;999.90;;;;;;;;;;5007117;28;20025;-82
2021/12/04 07:10:27;;;;;;;1999.90;999.90;;;;;;;;;;5003509;28;20043;-82
2021/12/04 07:12:52;;;;;;;1999.90;999.90;;;;;;;;;;5003230;28;20372;-83
2021/12/04 07:15:19;;;;;;;1999.90;999.90;;;;;;;;;;5006942;28;20423;-81
2021/12/04 07:17:44;;;;;;;1999.90;999.90;;;;;;;;;;5004439;28;20091;-83
2021/12/04 07:20:10;;;;;;;1999.90;999.90;;;;;;;;;;4999937;28;20037;-81
2021/12/04 07:22:35;;;;;;;1999.90;999.90;;;;;;;;;;4999903;28;20041;-81
2021/12/04 07:25:01;;;;;;;1999.90;999.90;;;;;;;;;;5016039;28;20114;-82
2021/12/04 07:27:28;;;;;;;1999.90;999.90;;;;;;;;;;5014949;28;20541;-81
2021/12/04 07:29:54;;;;;;;1999.90;999.90;;;;;;;;;;4999976;28;20399;-82
2021/12/04 07:32:20;;;;;;;1999.90;999.90;;;;;;;;;;5009950;28;20188;-82
2021/12/04 07:34:45;;;;;;;1999.90;999.90;;;;;;;;;;5002089;28;20124;-81
2021/12/04 07:37:10;;;;;;;1999.90;999.90;;;;;;;;;;5036417;28;20040;-83
2021/12/04 07:39:36;;;;;;;1999.90;999.90;;;;;;;;;;4998649;28;20116;-82
2021/12/04 07:42:01;;;;;;;1999.90;999.90;;;;;;;;;;4999351;28;20373;-81
2021/12/04 07:44:27;;;;;;;1999.90;999.90;;;;;;;;;;4999372;28;20029;-83
2021/12/04 07:46:52;;;;;;;1999.90;999.90;;;;;;;;;;5017687;28;20037;-82
2021/12/04 07:49:18;;;;;;;1999.90;999.90;;;;;;;;;;4983459;28;20029;-82
2021/12/04 07:51:44;;;;;;;1999.90;999.90;;;;;;;;;;5007013;28;20259;-83
2021/12/04 07:54:09;;;;;;;1999.90;999.90;;;;;;;;;;4999629;28;20044;-84
2021/12/04 07:56:35;;;;;;;1999.90;999.90;;;;;;;;;;4983416;28;20029;-83
2021/12/04 07:59:01;;;;;;;1999.90;999.90;;;;;;;;;;4999549;28;20037;-82
2021/12/04 08:01:26;;;;;;;1999.90;999.90;;;;;;;;;;5001189;28;20040;-84
2021/12/04 08:03:52;;;;;;;1999.90;999.90;;;;;;;;;;5001326;28;20055;-83
2021/12/04 08:06:17;;;;;;;1999.90;999.90;;;;;;;;;;4997097;28;20037;-83
2021/12/04 08:08:43;;;;;;;1999.90;999.90;;;;;;;;;;5024882;28;20032;-83
2021/12/04 08:11:08;;;;;;;1999.90;999.90;;;;;;;;;;5007502;28;20088;-84
2021/12/04 08:13:35;;;;;;;1999.90;999.90;;;;;;;;;;5014340;28;20444;-84
2021/12/04 08:16:01;;;;;;;1999.90;999.90;;;;;;;;;;5018586;28;20052;-82
2021/12/04 08:18:27;;;;;;;1999.90;999.90;;;;;;;;;;5017922;28;20045;-83
2021/12/04 08:20:52;;;;;;;1999.90;999.90;;;;;;;;;;5002252;28;20021;-83
2021/12/04 08:23:18;;;;;;;1999.90;999.90;;;;;;;;;;5001863;28;20037;-83
2021/12/04 08:25:45;;;;;;;1999.90;999.90;;;;;;;;;;4993108;28;20044;-83
2021/12/04 08:28:10;;;;;;;1607.38;757.25;;;;;;;;;;5000669;28;20050;-87
2021/12/04 08:30:40;;;;;;;1999.90;999.90;;;;;;;;;;5002332;28;20098;-86
2021/12/04 08:33:05;;;;;;;1999.90;999.90;;;;;;;;;;4988901;28;20539;-86
2021/12/04 08:35:35;;;;;;;1999.90;999.90;;;;;;;;;;5015036;28;20052;-85
2021/12/04 08:38:01;;;;;;;1999.90;999.90;;;;;;;;;;5003007;28;20033;-86
2021/12/04 08:40:28;;;;;;;1999.90;999.90;;;;;;;;;;5018108;28;20035;-85
2021/12/04 08:42:53;;;;;;;1999.90;999.90;;;;;;;;;;5001978;28;20063;-86
2021/12/04 08:45:19;;;;;;;1999.90;999.90;;;;;;;;;;4997379;28;20045;-86
2021/12/04 08:47:45;;;;;;;1999.90;999.90;;;;;;;;;;5001637;28;20057;-85
2021/12/04 08:50:16;;;;;;;1999.90;999.90;;;;;;;;;;5027280;28;20116;-86
2021/12/04 08:52:42;;;;;;;1999.90;999.90;;;;;;;;;;4982274;28;20079;-86
2021/12/04 08:55:09;;;;;;;1999.90;999.90;;;;;;;;;;5029390;28;20445;-86
2021/12/04 08:57:34;;;;;;;1999.90;999.90;;;;;;;;;;5030323;28;20040;-86
2021/12/04 08:59:59;;;;;;;1999.90;999.90;;;;;;;;;;5007865;28;20037;-86
2021/12/04 09:02:25;;;;;;;1999.90;999.90;;;;;;;;;;5031714;28;20043;-86
2021/12/04 09:04:50;;;;;;;1999.90;999.90;;;;;;;;;;5014332;28;20033;-85
2021/12/04 09:07:18;;;;;;;1999.90;999.90;;;;;;;;;;5029016;28;20435;-86
2021/12/04 09:09:44;;;;;;;1999.90;999.90;;;;;;;;;;5034853;28;20202;-88
2021/12/04 09:12:10;;;;;;;1999.90;999.90;;;;;;;;;;5010405;28;20022;-86
2021/12/04 09:14:36;;;;;;;1999.90;999.90;;;;;;;;;;4998952;28;20502;-87
2021/12/04 09:17:05;;;;;;;1999.90;999.90;;;;;;;;;;5024218;28;20483;-86
2021/12/04 09:19:30;;;;;;;1999.90;999.90;;;;;;;;;;5013231;28;20044;-87
2021/12/04 09:21:57;;;;;;;1999.90;999.90;;;;;;;;;;5014495;28;20124;-87
2021/12/04 09:24:28;;;;;;;1999.90;999.90;;;;;;;;;;5018098;28;20033;-82
2021/12/04 09:29:54;;;;;;;1999.90;999.90;;;;;;;;;;5035354;28;20033;-84
2021/12/04 09:32:57;;;;;;;1999.90;999.90;;;;;;;;;;5040296;28;20078;-83
2021/12/04 10:00:08;;;;;;;1999.90;999.90;;;;;;;;;;5040590;28;20518;-85
2021/12/04 10:02:42;;;;;;;1999.90;999.90;;;;;;;;;;5036055;28;20037;-85
2021/12/04 10:13:46;;;;;;;1999.90;999.90;;;;;;;;;;5003271;28;20407;-85
2021/12/04 10:19:20;;;;;;;1999.90;999.90;;;;;;;;;;5035727;28;20437;-87
2021/12/04 10:22:07;;;;;;;1999.90;999.90;;;;;;;;;;5020125;28;20119;-85
2021/12/04 10:33:14;;;;;;;1614.75;757.85;;;;;;;;;;5036251;28;20056;-85
2021/12/04 10:35:40;;;;;;;1999.90;999.90;;;;;;;;;;5005401;28;20079;-85
2021/12/04 10:38:08;;;;;;;1999.90;999.90;;;;;;;;;;5036826;28;20483;-85
2021/12/04 10:40:47;;;;;;;1999.90;999.90;;;;;;;;;;5033246;28;20025;-84
2021/12/04 10:43:16;;;;;;;1160.60;511.88;;;;;;;;;;5023447;28;20044;-85
2021/12/04 10:45:45;;;;;;;1587.53;755.78;;;;;;;;;;5005591;28;20048;-86
2021/12/04 10:48:15;;;;;;;1999.90;999.90;;;;;;;;;;5020279;28;20614;-86
2021/12/04 10:53:13;;;;;;;1999.90;999.90;;;;;;;;;;5034587;28;20040;-86
2021/12/04 11:04:01;;;;;;;1999.90;999.90;;;;;;;;;;5063115;28;20020;-85
2021/12/04 11:37:01;;;;;;;1999.90;999.90;;;;;;;;;;5037945;28;20033;-87
2021/12/04 11:44:54;;;;;;;1999.90;999.90;;;;;;;;;;5016978;28;20090;-86
2021/12/04 11:47:20;;;;;;;1999.90;999.90;;;;;;;;;;4987580;28;20510;-88
2021/12/04 11:49:46;;;;;;;1692.20;767.92;;;;;;;;;;5036883;28;20068;-87
2021/12/04 11:52:19;;;;;;;1999.90;999.90;;;;;;;;;;5019930;28;20033;-91
2021/12/04 11:54:50;;;;;;;1624.07;762.15;;;;;;;;;;5030512;28;20430;-86
2021/12/04 11:57:26;;;;;;;1999.90;999.90;;;;;;;;;;4999624;28;20038;-87
2021/12/04 11:59:51;;;;;;;1999.90;999.90;;;;;;;;;;4999525;28;20032;-84
2021/12/04 12:02:21;;;;;;;1280.30;518.85;;;;;;;;;;5018333;28;20037;-84
2021/12/04 12:04:54;;;;;;;1999.90;999.90;;;;;;;;;;5019625;28;20115;-89
2021/12/04 12:07:25;;;;;;;1675.50;768.63;;;;;;;;;;5018869;28;20029;-87
2021/12/04 12:10:20;;;;;;;1999.90;999.90;;;;;;;;;;5019840;28;20029;-86
2021/12/04 12:12:46;;;;;;;1999.90;999.90;;;;;;;;;;5030990;28;20564;-86
2021/12/04 12:15:40;;;;;;;887.65;54.25;;;;;;;;;;5035076;28;20032;-89
2021/12/04 12:18:23;;;;;;;1999.90;999.90;;;;;;;;;;5022980;28;20075;-88
2021/12/04 12:20:54;;;;;;;1999.90;999.90;;;;;;;;;;5004401;28;20494;-94
2021/12/04 12:23:24;;;;;;;1999.90;999.90;;;;;;;;;;5000697;28;20472;-87
2021/12/04 12:37:26;;;;;;;1999.90;999.90;;;;;;;;;;5013318;28;20029;-94
2021/12/04 12:40:00;;;;;;;1743.88;765.78;;;;;;;;;;5014943;28;20024;-87
2021/12/04 12:42:52;;;;;;;1999.90;999.90;;;;;;;;;;5018549;28;20072;-87
2021/12/04 12:45:23;;;;;;;1999.90;999.90;;;;;;;;;;5029749;28;20458;-88
2021/12/04 12:47:54;;;;;;;1999.90;999.90;;;;;;;;;;5003789;28;20302;-89
2021/12/04 12:50:27;;;;;;;1999.90;999.90;;;;;;;;;;5014933;28;20510;-88
2021/12/04 12:53:13;;;;;;;1613.38;757.38;;;;;;;;;;5015078;28;20276;-89
2021/12/04 12:55:41;;;;;;;1999.90;999.90;;;;;;;;;;4999281;28;20060;-89
2021/12/04 12:58:29;;;;;;;1999.90;999.90;;;;;;;;;;4998807;28;20029;-88
2021/12/04 13:12:15;;;;;;;1999.90;999.90;;;;;;;;;;5019823;28;20056;-91
2021/12/04 13:14:41;;;;;;;1999.90;999.90;;;;;;;;;;5002079;28;20065;-89
2021/12/04 13:17:11;;;;;;;1999.90;999.90;;;;;;;;;;5022488;28;20068;-89
2021/12/04 13:19:39;;;;;;;1119.68;508.77;;;;;;;;;;5023446;28;20201;-88
2021/12/04 13:22:07;;;;;;;1207.60;512.45;;;;;;;;;;5034676;28;20037;-88
2021/12/04 13:24:35;;;;;;;1999.90;999.90;;;;;;;;;;5034694;28;20068;-88
2021/12/04 13:29:46;;;;;;;1240.13;521.10;;;;;;;;;;5035656;28;20040;-88
2021/12/04 13:32:13;;;;;;;1999.90;999.90;;;;;;;;;;5018304;28;20032;-87
2021/12/04 13:34:40;;;;;;;1999.90;999.90;;;;;;;;;;5016445;28;20106;-85
2021/12/04 13:37:06;;;;;;;1999.90;999.90;;;;;;;;;;5017474;28;20053;-86
2021/12/04 13:39:32;;;;;;;1999.90;999.90;;;;;;;;;;5033808;28;20025;-85
2021/12/04 13:41:58;;;;;;;1999.90;999.90;;;;;;;;;;5015073;28;20480;-88
2021/12/04 13:44:25;;;;;;;1999.90;999.90;;;;;;;;;;4997988;28;20037;-85
2021/12/04 13:46:59;;;;;;;1600.05;756.55;;;;;;;;;;4982335;28;20567;-86
2021/12/04 13:49:32;;;;;;;1999.90;999.90;;;;;;;;;;4982893;28;20040;-86
2021/12/04 13:52:01;;;;;;;1999.90;999.90;;;;;;;;;;5033934;28;20040;-88
2021/12/04 13:54:28;;;;;;;1999.90;999.90;;;;;;;;;;5018120;28;20040;-88
2021/12/04 13:56:53;;;;;;;1583.90;762.15;;;;;;;;;;5017671;28;20033;-88
2021/12/04 13:59:23;;;;;;;1683.10;762.72;;;;;;;;;;5035661;28;20063;-89
2021/12/04 14:01:50;;;;;;;1999.90;999.90;;;;;;;;;;5021570;28;20029;-91
2021/12/04 14:04:16;;;;;;;1596.70;756.15;;;;;;;;;;5022496;28;20033;-90
2021/12/04 14:06:56;;;;;;;1730.97;766.67;;;;;;;;;;5022556;28;20094;-91
2021/12/04 14:09:23;;;;;;;1999.90;999.90;;;;;;;;;;5002112;28;20022;-91
2021/12/04 14:11:50;;;;;;;1999.90;999.90;;;;;;;;;;4998362;28;20075;-91
2021/12/04 14:14:18;;;;;;;1999.90;999.90;;;;;;;;;;5022968;28;20044;-91
2021/12/04 14:16:50;;;;;;;925.75;120.93;;;;;;;;;;5005445;28;20049;-90
2021/12/04 14:19:24;;;;;;;1999.90;999.90;;;;;;;;;;5019301;28;20107;-88
2021/12/04 14:21:56;;;;;;;1999.90;999.90;;;;;;;;;;5044938;28;20041;-82
2021/12/04 14:24:32;;;;;;;1999.90;999.90;;;;;;;;;;5017259;28;20479;-84
2021/12/04 14:26:59;;;;;;;1999.90;999.90;;;;;;;;;;4985985;28;20030;-82
2021/12/04 14:29:26;;;;;;;1999.90;999.90;;;;;;;;;;5017293;28;20041;-82
2021/12/04 14:31:52;;;;;;;1999.90;999.90;;;;;;;;;;4999798;28;20037;-81
2021/12/04 14:34:24;;;;;;;1999.90;999.90;;;;;;;;;;5054100;28;20414;-82
2021/12/04 14:37:19;;;;;;;;;;;;;;;;;;5037696;28;20029;-82
2021/12/04 14:39:46;;;;;;;580.38;64.43;;;;;;;;;;5027542;28;19962;-85
2021/12/04 14:42:12;;;;;;;1999.90;999.90;;;;;;;;;;5004064;28;20091;-85
2021/12/04 14:44:38;;;;;;;1999.90;999.90;;;;;;;;;;5017407;28;20109;-85
2021/12/04 14:47:06;;;;;;;1349.20;522.67;;;;;;;;;;5000543;28;20490;-85
2021/12/04 14:49:31;;;;;;;1671.82;764.15;;;;;;;;;;4985888;28;20029;-84
2021/12/04 14:51:56;;;;;;;1999.90;999.90;;;;;;;;;;5003060;28;20082;-90
2021/12/04 14:54:27;;;;;;;1623.05;757.50;;;;;;;;;;5019919;28;20033;-81
2021/12/04 14:56:52;;;;;;;1999.90;999.90;;;;;;;;;;5035709;28;20364;-81
2021/12/04 14:59:17;;;;;;;1592.63;755.80;;;;;;;;;;4991705;28;20055;-82
2021/12/04 15:01:43;;;;;;;1999.90;999.90;;;;;;;;;;5011737;28;20029;-82
2021/12/04 15:04:09;;;;;;;1999.90;999.90;;;;;;;;;;5012968;28;20028;-82
2021/12/04 15:06:37;;;;;;;1999.90;999.90;;;;;;;;;;5020100;28;20509;-81
2021/12/04 15:09:14;;;;;;;1999.90;999.90;;;;;;;;;;5024502;28;20017;-81
2021/12/04 15:11:45;;;;;;;1405.43;529.00;;;;;;;;;;5019270;28;20021;-82
2021/12/04 15:14:16;;;;;;;1749.60;769.38;;;;;;;;;;5033021;28;20121;-82
2021/12/04 15:16:50;;;;;;;1999.90;999.90;;;;;;;;;;5035613;28;20041;-82
2021/12/04 15:19:22;;;;;;;1999.90;999.90;;;;;;;;;;5021556;28;20037;-82
2021/12/04 15:21:52;;;;;;;1999.90;999.90;;;;;;;;;;5020155;28;20487;-82
2021/12/04 15:24:22;;;;;;;1704.97;766.40;;;;;;;;;;5020051;28;20126;-82
2021/12/04 15:26:53;;;;;;;1541.25;539.60;;;;;;;;;;5005486;28;20511;-81
2021/12/04 15:29:27;;;;;;;1999.90;999.90;;;;;;;;;;4984440;28;20026;-81
2021/12/04 15:31:54;;;;;;;1999.90;999.90;;;;;;;;;;5050613;28;20425;-82
2021/12/04 15:34:42;;;;;;;1999.90;999.90;;;;;;;;;;5002876;28;20426;-81
2021/12/04 15:37:08;;;;;;;1639.25;766.67;;;;;;;;;;5021089;28;20025;-81
2021/12/04 15:39:41;;;;;;;1999.90;999.90;;;;;;;;;;5014391;28;20029;-82
2021/12/04 15:55:24;;;;;;;1999.90;999.90;;;;;;;;;;5035839;28;20426;-83
2021/12/04 15:57:54;;;;;;;1999.90;999.90;;;;;;;;;;5019100;28;20029;-84
2021/12/04 16:00:20;;;;;;;1999.90;999.90;;;;;;;;;;5002770;28;20066;-87
2021/12/04 16:02:50;;;;;;;1591.40;760.60;;;;;;;;;;5015531;28;20037;-87
2021/12/04 16:05:21;;;;;;;1999.90;999.90;;;;;;;;;;5015544;28;20076;-87
2021/12/04 16:07:59;;;;;;;1999.90;999.90;;;;;;;;;;5020392;28;20855;-86
2021/12/04 16:10:24;;;;;;;1624.32;757.92;;;;;;;;;;5019817;28;20033;-88
2021/12/04 16:12:54;;;;;;;1999.90;999.90;;;;;;;;;;5000663;28;20063;-89
2021/12/04 16:15:21;;;;;;;1999.90;999.90;;;;;;;;;;5018632;28;20452;-88
2021/12/04 16:17:48;;;;;;;1999.90;999.90;;;;;;;;;;4999432;28;20021;-86
2021/12/04 16:20:17;;;;;;;1999.90;999.90;;;;;;;;;;4982977;28;20702;-88
2021/12/04 16:22:42;;;;;;;1999.90;999.90;;;;;;;;;;4983043;28;20407;-89
2021/12/04 16:25:10;;;;;;;1999.90;999.90;;;;;;;;;;4999218;28;20034;-89
2021/12/04 16:27:47;;;;;;;1999.90;999.90;;;;;;;;;;4983718;28;20044;-89
2021/12/04 16:33:07;;;;;;;1999.90;999.90;;;;;;;;;;5016818;28;20026;-88
2021/12/04 16:38:02;;;;;;;1999.90;999.90;;;;;;;;;;4998992;28;20029;-88
2021/12/04 16:40:30;;;;;;;1999.90;999.90;;;;;;;;;;4983079;28;20029;-87
2021/12/04 16:43:07;;;;;;;1999.90;999.90;;;;;;;;;;4999439;28;20029;-89
2021/12/04 16:45:32;;;;;;;1999.90;999.90;;;;;;;;;;4985611;28;20120;-88
2021/12/04 16:48:02;;;;;;;1999.90;999.90;;;;;;;;;;4982605;28;20571;-87
2021/12/04 16:50:40;;;;;;;1999.90;999.90;;;;;;;;;;5000183;28;20052;-87
2021/12/04 16:56:05;;;;;;;1999.90;999.90;;;;;;;;;;5017550;28;20029;-88
2021/12/04 16:58:31;;;;;;;1999.90;999.90;;;;;;;;;;5003229;28;20033;-88
2021/12/04 17:00:57;;;;;;;1999.90;999.90;;;;;;;;;;5000517;28;20021;-87
2021/12/04 17:03:22;;;;;;;1999.90;999.90;;;;;;;;;;5001772;28;20040;-87
2021/12/04 17:05:51;;;;;;;1999.90;999.90;;;;;;;;;;5018271;28;20383;-88
2021/12/04 17:08:16;;;;;;;1999.90;999.90;;;;;;;;;;5004171;28;20041;-87
2021/12/04 17:10:42;;;;;;;1999.90;999.90;;;;;;;;;;4998434;28;20037;-88
2021/12/04 17:13:07;;;;;;;1578.45;760.13;;;;;;;;;;5014726;28;20033;-88